sensor_id;sensor_type;location;lat;lon;timestamp;P1;durP1;ratioP1;P2;durP2;ratioP2
56997;SDS011;42890;44.244;22.530;2022-08-21T00:01:29;21.13;;;18.98;;
56997;SDS011;42890;44.244;22.530;2022-08-21T00:03:56;22.15;;;18.40;;
56997;SDS011;42890;44.244;22.530;2022-08-21T00:06:23;21.40;;;19.10;;
56997;SDS011;42890;44.244;22.530;2022-08-21T00:08:50;21.42;;;18.90;;
56997;SDS011;42890;44.244;22.530;2022-08-21T00:11:17;21.58;;;19.38;;
56997;SDS011;42890;44.244;22.530;2022-08-21T00:13:43;24.33;;;20.92;;
56997;SDS011;42890;44.244;22.530;2022-08-21T00:16:09;22.65;;;20.33;;
56997;SDS011;42890;44.244;22.530;2022-08-21T00:18:36;22.13;;;19.83;;
56997;SDS011;42890;44.244;22.530;2022-08-21T00:21:02;24.77;;;20.25;;
56997;SDS011;42890;44.244;22.530;2022-08-21T00:23:28;21.90;;;19.50;;
56997;SDS011;42890;44.244;22.530;2022-08-21T00:25:55;24.63;;;20.98;;
56997;SDS011;42890;44.244;22.530;2022-08-21T00:28:21;23.05;;;19.75;;
56997;SDS011;42890;44.244;22.530;2022-08-21T00:30:47;22.27;;;19.52;;
56997;SDS011;42890;44.244;22.530;2022-08-21T00:33:14;22.00;;;19.67;;
56997;SDS011;42890;44.244;22.530;2022-08-21T00:35:41;24.55;;;19.10;;
56997;SDS011;42890;44.244;22.530;2022-08-21T00:38:08;20.77;;;18.70;;
56997;SDS011;42890;44.244;22.530;2022-08-21T00:40:43;19.45;;;17.52;;
56997;SDS011;42890;44.244;22.530;2022-08-21T00:43:11;27.00;;;18.48;;
56997;SDS011;42890;44.244;22.530;2022-08-21T00:45:38;21.67;;;19.58;;
56997;SDS011;42890;44.244;22.530;2022-08-21T00:48:04;23.95;;;20.00;;
56997;SDS011;42890;44.244;22.530;2022-08-21T00:50:32;23.60;;;19.15;;
56997;SDS011;42890;44.244;22.530;2022-08-21T00:52:58;22.77;;;19.83;;
56997;SDS011;42890;44.244;22.530;2022-08-21T00:55:25;20.83;;;18.80;;
56997;SDS011;42890;44.244;22.530;2022-08-21T00:57:53;21.67;;;19.38;;
56997;SDS011;42890;44.244;22.530;2022-08-21T01:00:22;20.98;;;18.77;;
56997;SDS011;42890;44.244;22.530;2022-08-21T01:02:48;20.10;;;18.20;;
56997;SDS011;42890;44.244;22.530;2022-08-21T01:05:15;21.00;;;18.77;;
56997;SDS011;42890;44.244;22.530;2022-08-21T01:07:42;21.48;;;19.25;;
56997;SDS011;42890;44.244;22.530;2022-08-21T01:10:09;20.60;;;18.52;;
56997;SDS011;42890;44.244;22.530;2022-08-21T01:12:36;20.65;;;18.67;;
56997;SDS011;42890;44.244;22.530;2022-08-21T01:15:03;22.95;;;17.38;;
56997;SDS011;42890;44.244;22.530;2022-08-21T01:17:30;23.02;;;17.63;;
56997;SDS011;42890;44.244;22.530;2022-08-21T01:20:00;19.55;;;17.27;;
56997;SDS011;42890;44.244;22.530;2022-08-21T01:22:27;19.90;;;17.90;;
56997;SDS011;42890;44.244;22.530;2022-08-21T01:24:53;20.73;;;18.63;;
56997;SDS011;42890;44.244;22.530;2022-08-21T01:27:19;20.85;;;18.42;;
56997;SDS011;42890;44.244;22.530;2022-08-21T01:29:56;20.65;;;18.48;;
56997;SDS011;42890;44.244;22.530;2022-08-21T01:32:23;20.23;;;17.60;;
56997;SDS011;42890;44.244;22.530;2022-08-21T01:34:50;23.10;;;18.60;;
56997;SDS011;42890;44.244;22.530;2022-08-21T01:37:16;21.17;;;18.98;;
56997;SDS011;42890;44.244;22.530;2022-08-21T01:39:43;21.58;;;19.48;;
56997;SDS011;42890;44.244;22.530;2022-08-21T01:42:09;21.48;;;19.30;;
56997;SDS011;42890;44.244;22.530;2022-08-21T01:44:36;21.80;;;19.50;;
56997;SDS011;42890;44.244;22.530;2022-08-21T01:47:04;21.40;;;19.42;;
56997;SDS011;42890;44.244;22.530;2022-08-21T01:49:31;21.67;;;19.58;;
56997;SDS011;42890;44.244;22.530;2022-08-21T01:51:57;21.95;;;19.63;;
56997;SDS011;42890;44.244;22.530;2022-08-21T01:54:24;25.63;;;20.10;;
56997;SDS011;42890;44.244;22.530;2022-08-21T01:56:51;21.27;;;18.67;;
56997;SDS011;42890;44.244;22.530;2022-08-21T01:59:17;22.23;;;19.67;;
56997;SDS011;42890;44.244;22.530;2022-08-21T02:01:44;24.77;;;19.42;;
56997;SDS011;42890;44.244;22.530;2022-08-21T02:04:10;22.35;;;19.17;;
56997;SDS011;42890;44.244;22.530;2022-08-21T02:06:37;25.02;;;16.95;;
56997;SDS011;42890;44.244;22.530;2022-08-21T02:09:04;18.60;;;16.67;;
56997;SDS011;42890;44.244;22.530;2022-08-21T02:11:31;22.58;;;16.95;;
56997;SDS011;42890;44.244;22.530;2022-08-21T02:13:57;21.17;;;17.00;;
56997;SDS011;42890;44.244;22.530;2022-08-21T02:16:24;18.13;;;16.20;;
56997;SDS011;42890;44.244;22.530;2022-08-21T02:18:50;20.75;;;15.60;;
56997;SDS011;42890;44.244;22.530;2022-08-21T02:21:16;19.05;;;14.77;;
56997;SDS011;42890;44.244;22.530;2022-08-21T02:23:42;17.02;;;14.38;;
56997;SDS011;42890;44.244;22.530;2022-08-21T02:26:08;17.60;;;14.82;;
56997;SDS011;42890;44.244;22.530;2022-08-21T02:28:35;22.23;;;14.75;;
56997;SDS011;42890;44.244;22.530;2022-08-21T02:31:02;17.38;;;13.77;;
56997;SDS011;42890;44.244;22.530;2022-08-21T02:33:28;19.50;;;13.98;;
56997;SDS011;42890;44.244;22.530;2022-08-21T02:35:54;17.65;;;12.45;;
56997;SDS011;42890;44.244;22.530;2022-08-21T02:38:25;16.50;;;12.85;;
56997;SDS011;42890;44.244;22.530;2022-08-21T02:40:53;18.27;;;13.50;;
56997;SDS011;42890;44.244;22.530;2022-08-21T02:43:20;16.60;;;12.20;;
56997;SDS011;42890;44.244;22.530;2022-08-21T02:45:47;16.27;;;12.93;;
56997;SDS011;42890;44.244;22.530;2022-08-21T02:48:15;20.08;;;12.98;;
56997;SDS011;42890;44.244;22.530;2022-08-21T02:50:43;17.75;;;13.48;;
56997;SDS011;42890;44.244;22.530;2022-08-21T02:53:10;15.57;;;12.75;;
56997;SDS011;42890;44.244;22.530;2022-08-21T02:55:40;16.50;;;13.52;;
56997;SDS011;42890;44.244;22.530;2022-08-21T02:58:06;19.27;;;13.15;;
56997;SDS011;42890;44.244;22.530;2022-08-21T03:00:33;16.42;;;13.88;;
56997;SDS011;42890;44.244;22.530;2022-08-21T03:02:59;15.98;;;14.15;;
56997;SDS011;42890;44.244;22.530;2022-08-21T03:05:27;18.10;;;13.70;;
56997;SDS011;42890;44.244;22.530;2022-08-21T03:07:55;16.67;;;13.98;;
56997;SDS011;42890;44.244;22.530;2022-08-21T03:10:23;17.95;;;14.00;;
56997;SDS011;42890;44.244;22.530;2022-08-21T03:12:50;17.52;;;14.55;;
56997;SDS011;42890;44.244;22.530;2022-08-21T03:15:17;17.30;;;15.48;;
56997;SDS011;42890;44.244;22.530;2022-08-21T03:17:44;20.63;;;16.15;;
56997;SDS011;42890;44.244;22.530;2022-08-21T03:20:11;19.17;;;17.17;;
56997;SDS011;42890;44.244;22.530;2022-08-21T03:22:39;18.27;;;16.17;;
56997;SDS011;42890;44.244;22.530;2022-08-21T03:25:06;18.88;;;16.65;;
56997;SDS011;42890;44.244;22.530;2022-08-21T03:27:33;20.10;;;17.90;;
56997;SDS011;42890;44.244;22.530;2022-08-21T03:30:00;21.05;;;18.85;;
56997;SDS011;42890;44.244;22.530;2022-08-21T03:32:26;22.83;;;19.05;;
56997;SDS011;42890;44.244;22.530;2022-08-21T03:34:54;22.42;;;20.08;;
56997;SDS011;42890;44.244;22.530;2022-08-21T03:37:20;20.85;;;17.52;;
56997;SDS011;42890;44.244;22.530;2022-08-21T03:39:46;21.45;;;17.75;;
56997;SDS011;42890;44.244;22.530;2022-08-21T03:42:12;19.23;;;17.33;;
56997;SDS011;42890;44.244;22.530;2022-08-21T03:44:38;22.15;;;17.63;;
56997;SDS011;42890;44.244;22.530;2022-08-21T03:47:04;18.27;;;16.45;;
56997;SDS011;42890;44.244;22.530;2022-08-21T03:49:31;20.20;;;16.05;;
56997;SDS011;42890;44.244;22.530;2022-08-21T03:51:57;17.70;;;15.88;;
56997;SDS011;42890;44.244;22.530;2022-08-21T03:54:23;17.25;;;15.45;;
56997;SDS011;42890;44.244;22.530;2022-08-21T03:56:49;19.60;;;15.73;;
56997;SDS011;42890;44.244;22.530;2022-08-21T03:59:16;19.98;;;15.88;;
56997;SDS011;42890;44.244;22.530;2022-08-21T04:01:56;17.38;;;15.52;;
56997;SDS011;42890;44.244;22.530;2022-08-21T04:04:22;20.50;;;16.02;;
56997;SDS011;42890;44.244;22.530;2022-08-21T04:06:48;18.67;;;16.70;;
56997;SDS011;42890;44.244;22.530;2022-08-21T04:09:15;19.00;;;15.93;;
56997;SDS011;42890;44.244;22.530;2022-08-21T04:11:41;17.15;;;14.55;;
56997;SDS011;42890;44.244;22.530;2022-08-21T04:14:07;19.02;;;14.27;;
56997;SDS011;42890;44.244;22.530;2022-08-21T04:16:34;17.52;;;14.52;;
56997;SDS011;42890;44.244;22.530;2022-08-21T04:19:00;16.23;;;13.93;;
56997;SDS011;42890;44.244;22.530;2022-08-21T04:21:26;20.85;;;14.38;;
56997;SDS011;42890;44.244;22.530;2022-08-21T04:23:55;18.35;;;14.43;;
56997;SDS011;42890;44.244;22.530;2022-08-21T04:26:21;15.10;;;13.32;;
56997;SDS011;42890;44.244;22.530;2022-08-21T04:28:47;17.05;;;15.35;;
56997;SDS011;42890;44.244;22.530;2022-08-21T04:31:14;18.27;;;14.98;;
56997;SDS011;42890;44.244;22.530;2022-08-21T04:33:40;17.85;;;13.15;;
56997;SDS011;42890;44.244;22.530;2022-08-21T04:36:06;15.38;;;13.75;;
56997;SDS011;42890;44.244;22.530;2022-08-21T04:38:33;16.65;;;13.35;;
56997;SDS011;42890;44.244;22.530;2022-08-21T04:40:59;21.27;;;14.05;;
56997;SDS011;42890;44.244;22.530;2022-08-21T04:43:25;17.85;;;13.57;;
56997;SDS011;42890;44.244;22.530;2022-08-21T04:45:52;15.15;;;13.40;;
56997;SDS011;42890;44.244;22.530;2022-08-21T04:48:19;16.52;;;12.80;;
56997;SDS011;42890;44.244;22.530;2022-08-21T04:50:50;16.75;;;12.93;;
56997;SDS011;42890;44.244;22.530;2022-08-21T04:53:40;21.75;;;13.98;;
56997;SDS011;42890;44.244;22.530;2022-08-21T04:56:06;14.52;;;12.07;;
56997;SDS011;42890;44.244;22.530;2022-08-21T04:58:34;19.42;;;12.95;;
56997;SDS011;42890;44.244;22.530;2022-08-21T05:01:01;16.58;;;13.13;;
56997;SDS011;42890;44.244;22.530;2022-08-21T05:03:27;19.25;;;14.20;;
56997;SDS011;42890;44.244;22.530;2022-08-21T05:05:56;15.70;;;12.95;;
56997;SDS011;42890;44.244;22.530;2022-08-21T05:08:23;18.05;;;12.50;;
56997;SDS011;42890;44.244;22.530;2022-08-21T05:10:50;14.45;;;12.95;;
56997;SDS011;42890;44.244;22.530;2022-08-21T05:13:16;16.85;;;13.15;;
56997;SDS011;42890;44.244;22.530;2022-08-21T05:15:43;25.80;;;12.80;;
56997;SDS011;42890;44.244;22.530;2022-08-21T05:18:09;16.33;;;12.30;;
56997;SDS011;42890;44.244;22.530;2022-08-21T05:20:35;22.90;;;13.23;;
56997;SDS011;42890;44.244;22.530;2022-08-21T05:23:06;21.30;;;13.88;;
56997;SDS011;42890;44.244;22.530;2022-08-21T05:25:33;15.52;;;11.52;;
56997;SDS011;42890;44.244;22.530;2022-08-21T05:27:59;18.30;;;11.27;;
56997;SDS011;42890;44.244;22.530;2022-08-21T05:30:25;13.70;;;11.20;;
56997;SDS011;42890;44.244;22.530;2022-08-21T05:32:55;18.65;;;11.02;;
56997;SDS011;42890;44.244;22.530;2022-08-21T05:35:22;13.07;;;10.65;;
56997;SDS011;42890;44.244;22.530;2022-08-21T05:37:48;11.02;;;9.80;;
56997;SDS011;42890;44.244;22.530;2022-08-21T05:40:15;17.92;;;10.43;;
56997;SDS011;42890;44.244;22.530;2022-08-21T05:42:41;15.27;;;11.05;;
56997;SDS011;42890;44.244;22.530;2022-08-21T05:45:07;13.25;;;10.40;;
56997;SDS011;42890;44.244;22.530;2022-08-21T05:47:33;15.30;;;10.85;;
56997;SDS011;42890;44.244;22.530;2022-08-21T05:50:00;13.95;;;10.60;;
56997;SDS011;42890;44.244;22.530;2022-08-21T05:52:26;11.20;;;10.00;;
56997;SDS011;42890;44.244;22.530;2022-08-21T05:54:52;14.90;;;10.88;;
56997;SDS011;42890;44.244;22.530;2022-08-21T05:57:19;11.10;;;10.02;;
56997;SDS011;42890;44.244;22.530;2022-08-21T05:59:45;12.70;;;9.27;;
56997;SDS011;42890;44.244;22.530;2022-08-21T06:02:11;12.55;;;9.13;;
56997;SDS011;42890;44.244;22.530;2022-08-21T06:04:39;12.23;;;9.40;;
56997;SDS011;42890;44.244;22.530;2022-08-21T06:07:06;14.40;;;8.48;;
56997;SDS011;42890;44.244;22.530;2022-08-21T06:09:33;12.70;;;9.07;;
56997;SDS011;42890;44.244;22.530;2022-08-21T06:12:09;11.25;;;8.95;;
56997;SDS011;42890;44.244;22.530;2022-08-21T06:14:37;14.25;;;8.45;;
56997;SDS011;42890;44.244;22.530;2022-08-21T06:17:04;11.90;;;9.32;;
56997;SDS011;42890;44.244;22.530;2022-08-21T06:19:31;14.52;;;9.27;;
56997;SDS011;42890;44.244;22.530;2022-08-21T06:21:57;13.75;;;9.27;;
56997;SDS011;42890;44.244;22.530;2022-08-21T06:24:23;11.32;;;8.55;;
56997;SDS011;42890;44.244;22.530;2022-08-21T06:26:49;12.27;;;8.30;;
56997;SDS011;42890;44.244;22.530;2022-08-21T06:29:16;12.50;;;8.27;;
56997;SDS011;42890;44.244;22.530;2022-08-21T06:31:42;12.40;;;8.93;;
56997;SDS011;42890;44.244;22.530;2022-08-21T06:34:09;11.43;;;8.07;;
56997;SDS011;42890;44.244;22.530;2022-08-21T06:36:36;12.32;;;8.55;;
56997;SDS011;42890;44.244;22.530;2022-08-21T06:39:02;13.90;;;8.55;;
56997;SDS011;42890;44.244;22.530;2022-08-21T06:41:28;15.63;;;9.10;;
56997;SDS011;42890;44.244;22.530;2022-08-21T06:43:55;14.82;;;8.20;;
56997;SDS011;42890;44.244;22.530;2022-08-21T06:46:23;11.93;;;8.02;;
56997;SDS011;42890;44.244;22.530;2022-08-21T06:48:49;16.70;;;8.30;;
56997;SDS011;42890;44.244;22.530;2022-08-21T06:51:15;17.20;;;8.30;;
56997;SDS011;42890;44.244;22.530;2022-08-21T06:53:41;14.23;;;7.82;;
56997;SDS011;42890;44.244;22.530;2022-08-21T06:56:07;13.95;;;7.57;;
56997;SDS011;42890;44.244;22.530;2022-08-21T06:58:34;12.93;;;7.45;;
56997;SDS011;42890;44.244;22.530;2022-08-21T07:01:00;9.85;;;7.15;;
56997;SDS011;42890;44.244;22.530;2022-08-21T07:03:28;11.30;;;7.47;;
56997;SDS011;42890;44.244;22.530;2022-08-21T07:05:55;10.88;;;6.68;;
56997;SDS011;42890;44.244;22.530;2022-08-21T07:08:23;11.43;;;7.07;;
56997;SDS011;42890;44.244;22.530;2022-08-21T07:10:49;15.23;;;7.25;;
56997;SDS011;42890;44.244;22.530;2022-08-21T07:13:16;11.35;;;6.35;;
56997;SDS011;42890;44.244;22.530;2022-08-21T07:15:42;8.55;;;6.97;;
56997;SDS011;42890;44.244;22.530;2022-08-21T07:18:09;14.98;;;6.88;;
56997;SDS011;42890;44.244;22.530;2022-08-21T07:20:36;9.65;;;6.78;;
56997;SDS011;42890;44.244;22.530;2022-08-21T07:23:04;10.38;;;7.10;;
56997;SDS011;42890;44.244;22.530;2022-08-21T07:25:30;9.18;;;6.85;;
56997;SDS011;42890;44.244;22.530;2022-08-21T07:27:56;10.57;;;6.35;;
56997;SDS011;42890;44.244;22.530;2022-08-21T07:30:23;15.48;;;6.90;;
56997;SDS011;42890;44.244;22.530;2022-08-21T07:32:49;13.50;;;7.18;;
56997;SDS011;42890;44.244;22.530;2022-08-21T07:35:16;13.10;;;6.70;;
56997;SDS011;42890;44.244;22.530;2022-08-21T07:37:42;13.00;;;6.95;;
56997;SDS011;42890;44.244;22.530;2022-08-21T07:40:08;12.43;;;6.70;;
56997;SDS011;42890;44.244;22.530;2022-08-21T07:42:34;9.52;;;6.50;;
56997;SDS011;42890;44.244;22.530;2022-08-21T07:45:05;12.35;;;6.35;;
56997;SDS011;42890;44.244;22.530;2022-08-21T07:47:31;9.95;;;5.88;;
56997;SDS011;42890;44.244;22.530;2022-08-21T07:49:57;12.13;;;5.85;;
56997;SDS011;42890;44.244;22.530;2022-08-21T07:52:23;14.00;;;6.25;;
56997;SDS011;42890;44.244;22.530;2022-08-21T07:54:49;10.77;;;6.35;;
56997;SDS011;42890;44.244;22.530;2022-08-21T07:57:16;11.60;;;5.57;;
56997;SDS011;42890;44.244;22.530;2022-08-21T07:59:43;11.10;;;5.20;;
56997;SDS011;42890;44.244;22.530;2022-08-21T08:02:10;11.57;;;5.32;;
56997;SDS011;42890;44.244;22.530;2022-08-21T08:04:36;9.52;;;5.18;;
56997;SDS011;42890;44.244;22.530;2022-08-21T08:07:02;10.57;;;5.20;;
56997;SDS011;42890;44.244;22.530;2022-08-21T08:09:28;10.68;;;5.55;;
56997;SDS011;42890;44.244;22.530;2022-08-21T08:11:54;8.52;;;5.60;;
56997;SDS011;42890;44.244;22.530;2022-08-21T08:14:20;9.40;;;5.65;;
56997;SDS011;42890;44.244;22.530;2022-08-21T08:16:47;11.13;;;5.75;;
56997;SDS011;42890;44.244;22.530;2022-08-21T08:19:13;9.98;;;5.20;;
56997;SDS011;42890;44.244;22.530;2022-08-21T08:21:39;14.35;;;5.88;;
56997;SDS011;42890;44.244;22.530;2022-08-21T08:24:06;6.68;;;4.78;;
56997;SDS011;42890;44.244;22.530;2022-08-21T08:26:32;9.38;;;5.65;;
56997;SDS011;42890;44.244;22.530;2022-08-21T08:28:58;9.57;;;5.55;;
56997;SDS011;42890;44.244;22.530;2022-08-21T08:31:24;8.48;;;4.90;;
56997;SDS011;42890;44.244;22.530;2022-08-21T08:33:50;11.55;;;5.45;;
56997;SDS011;42890;44.244;22.530;2022-08-21T08:36:17;10.68;;;5.85;;
56997;SDS011;42890;44.244;22.530;2022-08-21T08:38:44;11.10;;;5.20;;
56997;SDS011;42890;44.244;22.530;2022-08-21T08:41:17;8.93;;;5.15;;
56997;SDS011;42890;44.244;22.530;2022-08-21T08:43:51;11.95;;;5.07;;
56997;SDS011;42890;44.244;22.530;2022-08-21T08:46:19;8.73;;;4.80;;
56997;SDS011;42890;44.244;22.530;2022-08-21T08:48:51;10.70;;;4.80;;
56997;SDS011;42890;44.244;22.530;2022-08-21T08:51:20;10.80;;;5.18;;
56997;SDS011;42890;44.244;22.530;2022-08-21T08:53:52;10.13;;;5.13;;
56997;SDS011;42890;44.244;22.530;2022-08-21T08:56:19;9.52;;;4.90;;
56997;SDS011;42890;44.244;22.530;2022-08-21T08:58:47;10.23;;;4.82;;
56997;SDS011;42890;44.244;22.530;2022-08-21T09:01:17;11.88;;;5.50;;
56997;SDS011;42890;44.244;22.530;2022-08-21T09:03:45;7.85;;;4.70;;
56997;SDS011;42890;44.244;22.530;2022-08-21T09:11:40;9.73;;;4.57;;
56997;SDS011;42890;44.244;22.530;2022-08-21T09:14:10;12.02;;;5.00;;
56997;SDS011;42890;44.244;22.530;2022-08-21T09:21:51;8.95;;;5.10;;
56997;SDS011;42890;44.244;22.530;2022-08-21T09:24:29;7.25;;;4.70;;
56997;SDS011;42890;44.244;22.530;2022-08-21T09:27:07;12.18;;;4.75;;
56997;SDS011;42890;44.244;22.530;2022-08-21T09:29:35;9.63;;;4.53;;
56997;SDS011;42890;44.244;22.530;2022-08-21T09:32:04;11.48;;;4.85;;
56997;SDS011;42890;44.244;22.530;2022-08-21T09:34:33;9.32;;;4.70;;
56997;SDS011;42890;44.244;22.530;2022-08-21T09:36:59;8.95;;;4.78;;
56997;SDS011;42890;44.244;22.530;2022-08-21T09:42:00;7.95;;;4.40;;
56997;SDS011;42890;44.244;22.530;2022-08-21T09:44:27;6.38;;;4.15;;
56997;SDS011;42890;44.244;22.530;2022-08-21T09:46:54;7.72;;;4.65;;
56997;SDS011;42890;44.244;22.530;2022-08-21T09:49:32;8.43;;;4.45;;
56997;SDS011;42890;44.244;22.530;2022-08-21T09:51:58;7.75;;;4.95;;
56997;SDS011;42890;44.244;22.530;2022-08-21T09:54:35;8.15;;;4.10;;
56997;SDS011;42890;44.244;22.530;2022-08-21T09:59:53;8.68;;;4.57;;
56997;SDS011;42890;44.244;22.530;2022-08-21T10:02:32;8.05;;;3.53;;
56997;SDS011;42890;44.244;22.530;2022-08-21T10:05:03;10.75;;;4.50;;
56997;SDS011;42890;44.244;22.530;2022-08-21T10:07:36;9.55;;;4.50;;
56997;SDS011;42890;44.244;22.530;2022-08-21T10:12:33;9.95;;;4.55;;
56997;SDS011;42890;44.244;22.530;2022-08-21T10:20:17;7.85;;;4.63;;
56997;SDS011;42890;44.244;22.530;2022-08-21T10:35:40;6.75;;;4.22;;
56997;SDS011;42890;44.244;22.530;2022-08-21T10:40:58;8.93;;;4.20;;
56997;SDS011;42890;44.244;22.530;2022-08-21T10:43:42;9.20;;;4.30;;
56997;SDS011;42890;44.244;22.530;2022-08-21T10:46:15;9.20;;;4.47;;
56997;SDS011;42890;44.244;22.530;2022-08-21T10:53:59;10.73;;;4.43;;
56997;SDS011;42890;44.244;22.530;2022-08-21T10:56:32;11.65;;;4.70;;
56997;SDS011;42890;44.244;22.530;2022-08-21T11:01:46;8.32;;;4.70;;
56997;SDS011;42890;44.244;22.530;2022-08-21T11:04:23;9.88;;;4.47;;
56997;SDS011;42890;44.244;22.530;2022-08-21T11:07:03;13.25;;;7.45;;
56997;SDS011;42890;44.244;22.530;2022-08-21T11:09:30;6.10;;;2.97;;
56997;SDS011;42890;44.244;22.530;2022-08-21T11:11:58;15.32;;;5.15;;
56997;SDS011;42890;44.244;22.530;2022-08-21T11:17:12;6.45;;;3.72;;
56997;SDS011;42890;44.244;22.530;2022-08-21T11:19:42;4.90;;;3.22;;
56997;SDS011;42890;44.244;22.530;2022-08-21T11:22:13;5.30;;;3.00;;
56997;SDS011;42890;44.244;22.530;2022-08-21T11:24:52;9.00;;;3.67;;
56997;SDS011;42890;44.244;22.530;2022-08-21T11:27:23;6.65;;;4.65;;
56997;SDS011;42890;44.244;22.530;2022-08-21T11:29:52;6.07;;;5.43;;
56997;SDS011;42890;44.244;22.530;2022-08-21T11:32:41;8.73;;;6.95;;
56997;SDS011;42890;44.244;22.530;2022-08-21T11:43:12;7.93;;;5.18;;
56997;SDS011;42890;44.244;22.530;2022-08-21T11:50:50;9.10;;;8.23;;
56997;SDS011;42890;44.244;22.530;2022-08-21T11:55:55;9.30;;;8.50;;
56997;SDS011;42890;44.244;22.530;2022-08-21T11:58:26;12.57;;;10.27;;
56997;SDS011;42890;44.244;22.530;2022-08-21T12:00:55;11.30;;;8.95;;
56997;SDS011;42890;44.244;22.530;2022-08-21T12:03:26;12.32;;;9.10;;
56997;SDS011;42890;44.244;22.530;2022-08-21T12:06:00;9.90;;;8.65;;
56997;SDS011;42890;44.244;22.530;2022-08-21T12:08:29;9.88;;;7.95;;
56997;SDS011;42890;44.244;22.530;2022-08-21T12:11:05;9.70;;;8.50;;
56997;SDS011;42890;44.244;22.530;2022-08-21T12:13:33;10.60;;;8.60;;
56997;SDS011;42890;44.244;22.530;2022-08-21T12:16:10;10.02;;;9.02;;
56997;SDS011;42890;44.244;22.530;2022-08-21T12:18:37;9.85;;;8.88;;
56997;SDS011;42890;44.244;22.530;2022-08-21T12:21:23;9.55;;;8.68;;
56997;SDS011;42890;44.244;22.530;2022-08-21T12:24:00;12.98;;;8.50;;
56997;SDS011;42890;44.244;22.530;2022-08-21T12:29:03;10.80;;;9.32;;
56997;SDS011;42890;44.244;22.530;2022-08-21T12:31:30;14.18;;;7.88;;
56997;SDS011;42890;44.244;22.530;2022-08-21T12:33:59;11.18;;;8.02;;
56997;SDS011;42890;44.244;22.530;2022-08-21T12:36:33;8.40;;;7.45;;
56997;SDS011;42890;44.244;22.530;2022-08-21T12:39:04;12.98;;;7.50;;
56997;SDS011;42890;44.244;22.530;2022-08-21T12:41:32;8.98;;;8.05;;
56997;SDS011;42890;44.244;22.530;2022-08-21T12:44:01;14.30;;;8.43;;
56997;SDS011;42890;44.244;22.530;2022-08-21T12:46:42;11.38;;;9.05;;
56997;SDS011;42890;44.244;22.530;2022-08-21T12:52:16;9.48;;;7.88;;
56997;SDS011;42890;44.244;22.530;2022-08-21T12:54:45;14.13;;;7.38;;
56997;SDS011;42890;44.244;22.530;2022-08-21T12:57:18;11.15;;;7.90;;
56997;SDS011;42890;44.244;22.530;2022-08-21T12:59:45;11.02;;;8.75;;
56997;SDS011;42890;44.244;22.530;2022-08-21T13:02:15;13.93;;;12.30;;
56997;SDS011;42890;44.244;22.530;2022-08-21T13:04:42;16.88;;;13.05;;
56997;SDS011;42890;44.244;22.530;2022-08-21T13:07:13;14.75;;;10.60;;
56997;SDS011;42890;44.244;22.530;2022-08-21T13:09:46;22.50;;;8.40;;
56997;SDS011;42890;44.244;22.530;2022-08-21T13:14:40;15.15;;;8.10;;
56997;SDS011;42890;44.244;22.530;2022-08-21T13:17:06;12.20;;;7.55;;
56997;SDS011;42890;44.244;22.530;2022-08-21T13:19:33;8.32;;;7.47;;
56997;SDS011;42890;44.244;22.530;2022-08-21T13:22:00;7.85;;;7.15;;
56997;SDS011;42890;44.244;22.530;2022-08-21T13:24:30;7.65;;;6.95;;
56997;SDS011;42890;44.244;22.530;2022-08-21T13:26:58;8.85;;;7.95;;
56997;SDS011;42890;44.244;22.530;2022-08-21T13:29:28;9.80;;;8.25;;
56997;SDS011;42890;44.244;22.530;2022-08-21T13:31:59;13.88;;;8.57;;
56997;SDS011;42890;44.244;22.530;2022-08-21T13:34:28;10.40;;;8.23;;
56997;SDS011;42890;44.244;22.530;2022-08-21T13:36:56;14.02;;;9.82;;
56997;SDS011;42890;44.244;22.530;2022-08-21T13:39:23;11.13;;;8.88;;
56997;SDS011;42890;44.244;22.530;2022-08-21T13:41:51;9.65;;;8.75;;
56997;SDS011;42890;44.244;22.530;2022-08-21T13:44:19;12.95;;;9.98;;
56997;SDS011;42890;44.244;22.530;2022-08-21T13:46:47;11.85;;;10.65;;
56997;SDS011;42890;44.244;22.530;2022-08-21T13:49:15;13.63;;;10.65;;
56997;SDS011;42890;44.244;22.530;2022-08-21T13:51:42;11.65;;;9.60;;
56997;SDS011;42890;44.244;22.530;2022-08-21T13:54:16;12.25;;;9.90;;
56997;SDS011;42890;44.244;22.530;2022-08-21T13:56:51;12.98;;;11.73;;
56997;SDS011;42890;44.244;22.530;2022-08-21T14:01:57;14.98;;;13.57;;
56997;SDS011;42890;44.244;22.530;2022-08-21T14:04:32;15.60;;;14.18;;
56997;SDS011;42890;44.244;22.530;2022-08-21T14:06:59;16.13;;;14.52;;
56997;SDS011;42890;44.244;22.530;2022-08-21T14:09:33;16.38;;;14.93;;
56997;SDS011;42890;44.244;22.530;2022-08-21T14:12:00;18.67;;;16.70;;
56997;SDS011;42890;44.244;22.530;2022-08-21T14:14:31;18.25;;;16.17;;
56997;SDS011;42890;44.244;22.530;2022-08-21T14:17:02;20.98;;;18.10;;
56997;SDS011;42890;44.244;22.530;2022-08-21T14:19:40;20.25;;;18.25;;
56997;SDS011;42890;44.244;22.530;2022-08-21T14:24:48;22.13;;;19.98;;
56997;SDS011;42890;44.244;22.530;2022-08-21T14:27:16;23.42;;;20.98;;
56997;SDS011;42890;44.244;22.530;2022-08-21T14:29:44;22.00;;;19.90;;
56997;SDS011;42890;44.244;22.530;2022-08-21T14:34:36;21.73;;;19.55;;
56997;SDS011;42890;44.244;22.530;2022-08-21T14:37:03;21.30;;;19.08;;
56997;SDS011;42890;44.244;22.530;2022-08-21T14:39:29;20.45;;;18.35;;
56997;SDS011;42890;44.244;22.530;2022-08-21T14:41:55;20.33;;;18.23;;
56997;SDS011;42890;44.244;22.530;2022-08-21T14:44:22;20.80;;;18.65;;
56997;SDS011;42890;44.244;22.530;2022-08-21T14:46:48;19.90;;;17.73;;
56997;SDS011;42890;44.244;22.530;2022-08-21T14:49:14;22.75;;;18.40;;
56997;SDS011;42890;44.244;22.530;2022-08-21T14:51:41;19.83;;;18.05;;
56997;SDS011;42890;44.244;22.530;2022-08-21T14:54:07;18.45;;;16.67;;
56997;SDS011;42890;44.244;22.530;2022-08-21T14:56:33;18.83;;;17.02;;
56997;SDS011;42890;44.244;22.530;2022-08-21T14:59:02;17.50;;;15.98;;
56997;SDS011;42890;44.244;22.530;2022-08-21T15:01:29;19.10;;;17.40;;
56997;SDS011;42890;44.244;22.530;2022-08-21T15:03:55;19.23;;;17.35;;
56997;SDS011;42890;44.244;22.530;2022-08-21T15:06:22;20.70;;;15.88;;
56997;SDS011;42890;44.244;22.530;2022-08-21T15:08:48;18.08;;;16.48;;
56997;SDS011;42890;44.244;22.530;2022-08-21T15:11:18;18.80;;;16.48;;
56997;SDS011;42890;44.244;22.530;2022-08-21T15:13:45;18.35;;;15.73;;
56997;SDS011;42890;44.244;22.530;2022-08-21T15:16:11;22.90;;;16.65;;
56997;SDS011;42890;44.244;22.530;2022-08-21T15:18:37;17.33;;;15.80;;
56997;SDS011;42890;44.244;22.530;2022-08-21T15:21:04;17.70;;;16.00;;
56997;SDS011;42890;44.244;22.530;2022-08-21T15:23:30;18.95;;;16.90;;
56997;SDS011;42890;44.244;22.530;2022-08-21T15:25:56;19.33;;;17.40;;
56997;SDS011;42890;44.244;22.530;2022-08-21T15:28:22;19.13;;;17.25;;
56997;SDS011;42890;44.244;22.530;2022-08-21T15:30:49;18.02;;;16.08;;
56997;SDS011;42890;44.244;22.530;2022-08-21T15:33:16;19.48;;;17.20;;
56997;SDS011;42890;44.244;22.530;2022-08-21T15:35:42;19.27;;;17.38;;
56997;SDS011;42890;44.244;22.530;2022-08-21T15:38:09;20.48;;;18.77;;
56997;SDS011;42890;44.244;22.530;2022-08-21T15:40:36;19.38;;;17.67;;
56997;SDS011;42890;44.244;22.530;2022-08-21T15:43:03;21.55;;;19.42;;